Perrys Mills, New York
Current Conditions -  °F | °C
As of 11:35 AM on Wednesday 22 Oct 2014 (Local Time) from KFSO Reporting Station
Overcast Overcast  
Wind Chill: 40°   Ceiling: 6500
Heat Index: 46°   Visibility: 10mi
Dew Point: 44°   Wind: 12mph
Humidity: 93%   Direction: 10°N
Pressure: 30.23"   Gusts: 16mph
Location:  44.9684°N, 73.45°W
Report Text: KFSO 221535Z AUTO 01010G14KT 10SM SCT006 BKN065 OVC080 08/07 A3023 RMK AO2 T00760065
Loading
Personal Weather Stations






























Interactive Weather Map
Tropical Storm Tracking
New forecast layout! Learn more

10-Day Weather Forecast

Advertisements
Track Severe Weather on mobile